createdAt,value
2023-05-10T00:01:32.408Z,3.11
2023-05-10T00:06:48.530Z,3.18
2023-05-10T00:12:04.753Z,3.14
2023-05-10T00:17:20.847Z,3.16
2023-05-10T00:22:35.737Z,3.12
2023-05-10T00:27:51.228Z,3.24
2023-05-10T00:33:07.325Z,3.46
2023-05-10T00:38:21.714Z,3.22
2023-05-10T00:43:37.193Z,3.35
2023-05-10T00:48:52.699Z,3.31
2023-05-10T00:54:08.222Z,3.52
2023-05-10T00:59:24.373Z,3.69
2023-05-10T01:04:40.171Z,3.45
2023-05-10T01:09:56.111Z,3.58
2023-05-10T01:15:11.550Z,3.47
2023-05-10T01:20:27.734Z,3.44
2023-05-10T01:25:43.283Z,3.5
2023-05-10T01:31:00.966Z,3.5
2023-05-10T01:36:16.853Z,3.52
2023-05-10T01:41:32.389Z,3.5
2023-05-10T01:46:47.487Z,3.58
2023-05-10T01:52:02.124Z,3.52
2023-05-10T01:57:18.353Z,3.31
2023-05-10T02:02:34.714Z,3.6
2023-05-10T02:07:49.978Z,3.46
2023-05-10T02:13:06.330Z,3.39
2023-05-10T02:18:20.385Z,3.31
2023-05-10T02:23:34.762Z,3.17
2023-05-10T02:28:49.568Z,3.24
2023-05-10T03:16:17.643Z,3.21
2023-05-10T03:21:26.017Z,3.28
2023-05-10T03:26:40.888Z,3.27
2023-05-10T03:31:57.233Z,3.19
2023-05-10T03:37:12.541Z,3.39
2023-05-10T03:42:27.426Z,3.46
2023-05-10T03:47:43.205Z,3.44
2023-05-10T03:52:58.466Z,3.65
2023-05-10T03:58:15.260Z,3.76
2023-05-10T04:03:30.633Z,3.72
2023-05-10T04:08:45.643Z,3.76
2023-05-10T04:14:01.185Z,3.86
2023-05-10T04:19:17.375Z,3.78
2023-05-10T04:24:32.343Z,3.62
2023-05-10T04:29:48.368Z,3.71
2023-05-10T04:35:04.666Z,3.73
2023-05-10T04:40:20.719Z,3.8
2023-05-10T04:45:36.828Z,3.59
2023-05-10T04:50:53.030Z,3.72
2023-05-10T04:56:09.266Z,3.82
2023-05-10T05:01:24.625Z,3.93
2023-05-10T05:06:39.002Z,4
2023-05-10T05:11:53.838Z,4.02
2023-05-10T05:17:08.717Z,4.27
2023-05-10T05:22:24.861Z,4.2
2023-05-10T05:27:39.139Z,4.14
2023-05-10T05:32:55.450Z,3.94
2023-05-10T05:38:10.804Z,4.17
2023-05-10T05:43:26.934Z,4.35
2023-05-10T05:48:42.437Z,4.3
2023-05-10T05:53:59.278Z,4.25
2023-05-10T05:59:14.142Z,4.2
2023-05-10T06:04:30.085Z,4.35
2023-05-10T06:09:44.597Z,4.24
2023-05-10T06:15:00.731Z,4.54
2023-05-10T06:20:15.593Z,4.63
2023-05-10T06:25:29.865Z,4.69
2023-05-10T06:30:45.434Z,4.61
2023-05-10T06:36:00.845Z,4.85
2023-05-10T06:41:16.365Z,4.73
2023-05-10T06:46:31.427Z,4.63
2023-05-10T06:51:46.822Z,4.76
2023-05-10T06:57:31.052Z,4.79
2023-05-10T07:02:17.030Z,4.58
2023-05-10T07:07:32.075Z,4.76
2023-05-10T07:12:48.017Z,4.67
2023-05-10T07:18:04.735Z,4.75
2023-05-10T07:23:18.615Z,4.71
2023-05-10T07:28:34.210Z,4.62
2023-05-10T07:33:50.289Z,4.79
2023-05-10T07:39:05.811Z,4.88
2023-05-10T07:44:20.778Z,4.79
2023-05-10T07:49:36.193Z,4.75
2023-05-10T07:54:51.128Z,4.78
2023-05-10T08:00:07.260Z,4.68
2023-05-10T08:05:23.429Z,4.63
2023-05-10T08:10:38.952Z,4.62
2023-05-10T08:15:56.033Z,4.65
2023-05-10T08:21:11.929Z,4.79
2023-05-10T08:26:28.115Z,4.9
2023-05-10T08:31:43.929Z,4.75
2023-05-10T08:36:59.763Z,4.74
2023-05-10T08:42:15.266Z,4.85
2023-05-10T08:47:30.966Z,5.04
2023-05-10T08:52:45.661Z,4.81
2023-05-10T08:58:01.158Z,4.65
2023-05-10T09:03:16.086Z,4.43
2023-05-10T09:08:30.953Z,4.71
2023-05-10T09:13:46.479Z,4.61
2023-05-10T09:19:01.661Z,4.54
2023-05-10T09:24:17.514Z,4.57
2023-05-10T09:29:33.022Z,4.65
2023-05-10T09:34:47.886Z,4.52
2023-05-10T09:40:02.831Z,4.65
2023-05-10T09:45:19.627Z,4.41
2023-05-10T09:50:34.463Z,4.44
2023-05-10T09:55:49.973Z,4.27
2023-05-10T10:01:05.178Z,4.14
2023-05-10T10:06:30.974Z,3.8
2023-05-10T10:11:35.279Z,4.09
2023-05-10T10:17:09.443Z,4.05
2023-05-10T10:22:07.757Z,3.96
2023-05-10T10:27:21.806Z,3.89
2023-05-10T10:32:37.584Z,4.06
2023-05-10T10:37:52.221Z,3.89
2023-05-10T10:43:07.148Z,4.05
2023-05-10T10:48:21.967Z,3.96
2023-05-10T10:53:37.527Z,4.01
2023-05-10T10:58:53.654Z,3.68
2023-05-10T11:04:08.807Z,4.19
2023-05-10T11:09:23.408Z,4.07
2023-05-10T11:14:38.297Z,4.25
2023-05-10T11:19:53.882Z,4.22
2023-05-10T11:25:09.341Z,3.86
2023-05-10T11:30:24.896Z,4.06
2023-05-10T11:35:44.064Z,4.13
2023-05-10T11:40:57.173Z,3.83
2023-05-10T11:46:12.335Z,4.23
2023-05-10T11:51:27.605Z,4.3
2023-05-10T11:56:43.112Z,4.09
2023-05-10T12:01:58.758Z,4.07
2023-05-10T12:07:13.500Z,4.25
2023-05-10T12:12:28.987Z,4.58
2023-05-10T12:17:44.736Z,4.17
2023-05-10T12:23:01.005Z,4.11
2023-05-10T12:28:16.206Z,4.14
2023-05-10T12:33:31.746Z,4.09
2023-05-10T12:38:47.915Z,4.06
2023-05-10T12:44:03.461Z,4
2023-05-10T12:49:19.622Z,4.15
2023-05-10T12:54:36.390Z,4.05
2023-05-10T12:59:52.524Z,4.01
2023-05-10T13:05:08.403Z,4.04
2023-05-10T13:10:22.915Z,3.97
2023-05-10T13:15:38.486Z,4.1
2023-05-10T13:21:13.220Z,3.79
2023-05-10T13:26:28.101Z,3.75
2023-05-10T13:31:43.158Z,3.77
2023-05-10T13:36:59.731Z,3.91
2023-05-10T13:42:15.264Z,3.75
2023-05-10T16:24:02.812Z,3.77
2023-05-10T17:37:38.167Z,4.18
2023-05-10T17:42:53.682Z,4.22
2023-05-10T17:48:08.720Z,4.18
2023-05-10T17:53:24.051Z,4.42
2023-05-10T17:58:39.575Z,4.37
2023-05-10T18:03:56.401Z,4.29
2023-05-10T18:09:12.662Z,4.37
2023-05-10T18:14:42.012Z,4.15
2023-05-10T18:19:43.585Z,4.37
2023-05-10T18:24:59.132Z,4.24
2023-05-10T18:30:15.879Z,4.48
2023-05-10T18:35:32.248Z,4.32
